createdAt,value
2023-05-18T00:00:18.177Z,89.30
2023-05-18T00:05:20.505Z,90.50
2023-05-18T00:10:22.955Z,91.60
2023-05-18T00:15:25.456Z,91.70
2023-05-18T00:20:29.536Z,92.20
2023-05-18T00:25:32.208Z,92.10
2023-05-18T00:30:34.575Z,91.90
2023-05-18T00:35:36.904Z,92.00
2023-05-18T00:40:39.888Z,92.40
2023-05-18T00:45:42.272Z,92.90
2023-05-18T00:50:44.900Z,93.80
2023-05-18T00:55:48.546Z,93.30
2023-05-18T01:00:51.825Z,93.00
2023-05-18T01:05:57.984Z,93.50
2023-05-18T01:11:34.246Z,93.60
2023-05-18T01:16:51.209Z,94.00
2023-05-18T01:21:58.356Z,94.70
2023-05-18T01:27:01.209Z,94.40
2023-05-18T01:32:07.543Z,94.80
2023-05-18T01:37:09.883Z,95.40
2023-05-18T01:42:15.922Z,95.80
2023-05-18T01:47:19.020Z,95.70
2023-05-18T01:52:53.037Z,96.60
2023-05-18T01:57:58.541Z,95.40
2023-05-18T02:03:03.578Z,96.70
2023-05-18T02:08:06.684Z,97.10
2023-05-18T02:13:09.104Z,97.40
2023-05-18T02:18:11.600Z,96.70
2023-05-18T02:23:14.013Z,97.50
2023-05-18T02:28:16.371Z,97.80
2023-05-18T02:33:26.679Z,98.40
2023-05-18T02:38:29.201Z,99.40
2023-05-18T02:43:32.234Z,99.30
2023-05-18T02:48:34.710Z,99.80
2023-05-18T02:53:37.547Z,99.70
2023-05-18T02:58:45.436Z,99.90
2023-05-18T03:04:03.006Z,99.80
2023-05-18T03:09:07.723Z,99.30
2023-05-18T03:14:15.512Z,99.10
2023-05-18T03:19:19.411Z,98.80
2023-05-18T03:24:22.293Z,99.10
2023-05-18T03:29:25.907Z,99.10
2023-05-18T03:34:28.429Z,99.80
2023-05-18T03:39:31.080Z,99.90
2023-05-18T03:44:33.641Z,99.30
2023-05-18T03:49:36.887Z,99.90
2023-05-18T03:54:42.736Z,99.90
2023-05-18T03:59:46.116Z,99.90
2023-05-18T04:04:48.565Z,99.90
2023-05-18T04:09:52.187Z,99.90
2023-05-18T04:14:55.622Z,99.90
2023-05-18T04:19:58.075Z,99.90
2023-05-18T04:25:01.835Z,99.90
2023-05-18T04:30:04.799Z,99.90
2023-05-18T04:35:08.076Z,99.90
2023-05-18T04:40:13.881Z,99.90
2023-05-18T04:45:20.623Z,99.90
2023-05-18T04:50:24.404Z,99.40
2023-05-18T04:55:29.215Z,98.40
2023-05-18T05:00:50.427Z,97.90
2023-05-18T05:05:52.874Z,97.50
2023-05-18T05:10:55.445Z,96.40
2023-05-18T05:15:57.761Z,94.40
2023-05-18T05:21:01.205Z,94.10
2023-05-18T05:26:03.988Z,93.90
2023-05-18T05:31:07.410Z,92.60
2023-05-18T05:36:10.517Z,92.50
2023-05-18T05:41:23.229Z,92.40
2023-05-18T05:46:26.019Z,90.80
2023-05-18T05:51:29.246Z,89.90
2023-05-18T05:56:32.078Z,88.80
2023-05-18T06:01:35.049Z,88.80
2023-05-18T06:06:39.333Z,88.10
2023-05-18T06:11:51.968Z,86.50
2023-05-18T06:17:00.995Z,87.00
2023-05-18T06:22:04.162Z,83.60
2023-05-18T06:27:21.374Z,82.80
2023-05-18T06:32:38.509Z,80.70
2023-05-18T06:37:46.114Z,78.80
2023-05-18T06:42:49.606Z,75.50
2023-05-18T06:48:01.622Z,74.90
2023-05-18T06:53:05.870Z,74.00
2023-05-18T06:58:09.007Z,73.10
2023-05-18T07:03:12.744Z,71.20
2023-05-18T07:08:15.349Z,73.70
2023-05-18T07:13:19.020Z,71.70
2023-05-18T07:18:21.741Z,69.60
2023-05-18T07:23:24.249Z,68.40
2023-05-18T07:28:29.790Z,65.20
2023-05-18T07:33:32.953Z,64.20
2023-05-18T07:38:35.397Z,63.20
2023-05-18T07:43:38.025Z,65.70
2023-05-18T07:48:41.163Z,62.80
2023-05-18T07:53:45.976Z,62.90
2023-05-18T07:58:48.549Z,63.40
2023-05-18T08:03:51.276Z,63.30
2023-05-18T08:08:53.866Z,63.10
2023-05-18T08:13:56.582Z,64.60
2023-05-18T08:18:59.048Z,62.40
2023-05-18T08:24:04.463Z,64.60
2023-05-18T08:29:10.285Z,61.50
2023-05-18T08:34:12.864Z,61.70
2023-05-18T08:39:15.649Z,62.90
2023-05-18T08:44:23.022Z,62.70
2023-05-18T08:49:27.360Z,62.20
2023-05-18T08:54:31.560Z,61.30
2023-05-18T08:59:41.550Z,59.90
2023-05-18T09:04:44.960Z,58.80
2023-05-18T09:09:48.481Z,59.40
2023-05-18T09:14:51.557Z,59.10
2023-05-18T09:19:54.172Z,60.10
2023-05-18T09:24:56.730Z,59.40
2023-05-18T09:29:59.163Z,57.90
2023-05-18T09:35:06.543Z,59.90
2023-05-18T09:40:11.816Z,59.90
2023-05-18T09:45:24.253Z,58.50
2023-05-18T09:50:27.421Z,57.30
2023-05-18T09:55:29.969Z,55.30
2023-05-18T10:00:33.371Z,56.40
2023-05-18T10:05:36.668Z,53.70
2023-05-18T10:10:41.076Z,55.60
2023-05-18T10:15:51.984Z,52.40
2023-05-18T10:20:58.492Z,51.00
2023-05-18T10:26:07.121Z,51.40
2023-05-18T10:31:09.792Z,50.30
2023-05-18T10:36:12.782Z,48.70
2023-05-18T10:41:17.853Z,49.20
2023-05-18T10:46:26.544Z,49.70
2023-05-18T10:51:47.425Z,50.60
2023-05-18T10:56:52.756Z,48.50
2023-05-18T11:01:57.824Z,47.90
2023-05-18T11:07:01.503Z,45.00
2023-05-18T11:12:11.147Z,43.20
2023-05-18T11:17:18.896Z,42.50
2023-05-18T11:22:21.564Z,39.60
2023-05-18T11:27:24.773Z,41.70
2023-05-18T11:32:31.403Z,40.20
2023-05-18T11:37:39.792Z,42.00
2023-05-18T11:42:42.150Z,36.50
2023-05-18T11:47:44.787Z,37.90
2023-05-18T11:52:51.413Z,36.70
2023-05-18T11:57:54.269Z,37.80
2023-05-18T12:02:57.778Z,36.70
2023-05-18T12:08:00.871Z,35.60
2023-05-18T12:13:04.185Z,36.20
2023-05-18T12:18:06.627Z,37.20
2023-05-18T12:23:09.426Z,36.90
2023-05-18T12:28:14.195Z,34.50
2023-05-18T12:33:16.829Z,33.50
2023-05-18T12:38:19.785Z,32.20
2023-05-18T12:43:25.693Z,32.20
2023-05-18T12:48:28.054Z,29.60
2023-05-18T12:53:43.247Z,29.20
2023-05-18T12:58:59.835Z,28.70
2023-05-18T13:04:02.491Z,28.60
2023-05-18T13:09:10.498Z,27.40
2023-05-18T13:14:14.594Z,29.00
2023-05-18T13:19:20.876Z,29.60
2023-05-18T13:24:23.403Z,27.10
2023-05-18T13:29:25.787Z,26.40
2023-05-18T13:34:28.403Z,29.10
2023-05-18T13:39:30.764Z,27.50
2023-05-18T13:44:33.170Z,25.70
2023-05-18T13:49:35.809Z,25.00
2023-05-18T13:54:38.445Z,25.80
2023-05-18T13:59:40.912Z,26.30
2023-05-18T14:04:43.306Z,23.90
2023-05-18T14:09:45.987Z,23.80
2023-05-18T14:14:48.346Z,24.10
2023-05-18T14:19:50.750Z,26.20
2023-05-18T14:24:53.892Z,28.60
2023-05-18T14:29:56.656Z,27.50
2023-05-18T14:34:58.995Z,24.60
2023-05-18T14:40:01.390Z,23.60
2023-05-18T14:45:04.073Z,23.10
2023-05-18T14:50:07.019Z,25.80
2023-05-18T14:55:09.832Z,25.00
2023-05-18T15:00:12.845Z,22.60
2023-05-18T15:05:15.622Z,22.80
2023-05-18T15:10:18.002Z,26.50
2023-05-18T15:15:20.501Z,29.30
2023-05-18T15:20:24.404Z,29.50
2023-05-18T15:25:27.198Z,24.80
2023-05-18T15:30:30.230Z,22.90
2023-05-18T15:35:34.828Z,23.30
2023-05-18T15:40:37.224Z,26.10
2023-05-18T15:45:39.636Z,28.60
2023-05-18T15:50:42.111Z,27.50
2023-05-18T15:55:52.520Z,24.10
2023-05-18T16:00:55.375Z,23.50
2023-05-18T16:05:58.335Z,25.90
2023-05-18T16:11:02.271Z,27.40
2023-05-18T16:16:04.920Z,27.00
2023-05-18T16:21:07.349Z,24.70
2023-05-18T16:26:10.433Z,23.90
2023-05-18T16:31:12.886Z,24.00
2023-05-18T16:36:15.437Z,26.30
2023-05-18T16:41:18.112Z,27.70
2023-05-18T16:46:20.499Z,25.60
2023-05-18T16:51:23.264Z,28.00
2023-05-18T16:56:26.999Z,30.50
2023-05-18T17:01:30.840Z,33.00
2023-05-18T17:06:33.517Z,30.40
2023-05-18T17:11:36.121Z,26.80
2023-05-18T17:16:40.973Z,25.80
2023-05-18T17:21:43.400Z,26.90
2023-05-18T17:26:45.757Z,29.60
2023-05-18T17:31:48.113Z,31.50
2023-05-18T17:36:50.482Z,33.80
2023-05-18T17:41:54.307Z,35.80
2023-05-18T17:46:57.545Z,36.80
2023-05-18T17:52:00.044Z,38.10
2023-05-18T17:57:02.436Z,39.50
2023-05-18T18:02:05.334Z,40.60
2023-05-18T18:07:08.244Z,40.60
2023-05-18T18:12:10.631Z,41.60
2023-05-18T18:17:13.152Z,42.30
2023-05-18T18:22:15.692Z,43.60
2023-05-18T18:27:19.917Z,44.50
2023-05-18T18:32:22.374Z,44.60
2023-05-18T18:37:24.775Z,46.30
2023-05-18T18:42:27.133Z,47.40
2023-05-18T18:47:29.561Z,49.00
2023-05-18T18:52:32.091Z,50.30
2023-05-18T18:57:34.550Z,52.10
2023-05-18T19:02:40.996Z,53.70
2023-05-18T19:07:44.007Z,55.40
2023-05-18T19:12:46.444Z,57.70
2023-05-18T19:17:53.545Z,59.10
2023-05-18T19:22:56.171Z,59.50
2023-05-18T19:27:59.006Z,60.00
2023-05-18T19:33:01.504Z,60.70
2023-05-18T19:38:03.982Z,62.60
2023-05-18T19:43:06.490Z,64.80
2023-05-18T19:48:09.000Z,65.70
2023-05-18T19:53:11.504Z,66.50
2023-05-18T19:58:13.941Z,68.30
2023-05-18T20:03:16.841Z,69.80
2023-05-18T20:08:19.660Z,70.80
2023-05-18T20:13:23.014Z,72.30
2023-05-18T20:18:26.196Z,73.60
2023-05-18T20:23:28.641Z,75.00
2023-05-18T20:28:31.831Z,75.40
2023-05-18T20:33:36.997Z,76.10
2023-05-18T20:38:39.576Z,76.60
2023-05-18T20:43:41.928Z,78.00
2023-05-18T20:48:44.786Z,79.00
2023-05-18T20:53:47.261Z,80.00
2023-05-18T20:58:50.325Z,77.50
2023-05-18T21:03:52.910Z,74.10
2023-05-18T21:08:55.680Z,73.40
2023-05-18T21:13:58.135Z,71.70
2023-05-18T21:19:00.575Z,71.90
2023-05-18T21:24:03.104Z,72.10
2023-05-18T21:29:06.232Z,71.30
2023-05-18T21:34:08.772Z,71.70
2023-05-18T21:39:11.191Z,70.30
2023-05-18T21:44:13.608Z,70.40
2023-05-18T21:49:15.904Z,70.30
2023-05-18T21:54:18.251Z,69.50
2023-05-18T21:59:20.591Z,69.70
2023-05-18T22:04:23.206Z,69.60
2023-05-18T22:09:25.812Z,69.30
2023-05-18T22:14:28.197Z,68.60
2023-05-18T22:19:30.662Z,68.40
2023-05-18T22:24:33.032Z,68.00
2023-05-18T22:29:35.741Z,68.30
2023-05-18T22:34:38.812Z,68.60
2023-05-18T22:39:42.548Z,69.10
2023-05-18T22:44:45.036Z,69.90
2023-05-18T22:49:49.218Z,69.40
2023-05-18T22:54:51.658Z,69.00
2023-05-18T22:59:54.066Z,68.40
2023-05-18T23:04:56.488Z,69.10
2023-05-18T23:09:59.459Z,69.20
2023-05-18T23:15:03.853Z,69.30
2023-05-18T23:20:07.514Z,70.40
2023-05-18T23:25:11.098Z,70.60
2023-05-18T23:30:13.617Z,70.20
2023-05-18T23:35:16.645Z,69.80
2023-05-18T23:40:19.672Z,69.80
2023-05-18T23:45:23.523Z,70.90
2023-05-18T23:50:26.444Z,70.30
2023-05-18T23:55:30.299Z,70.90
